createdAt,value
2022-10-23T00:00:17.155Z,10.25
2022-10-23T00:02:44.827Z,10.13
2022-10-23T00:05:12.447Z,9.82
2022-10-23T00:07:39.637Z,9.27
2022-10-23T00:10:07.035Z,9.30
2022-10-23T00:12:34.244Z,9.80
2022-10-23T00:15:01.391Z,10.20
2022-10-23T00:17:28.545Z,9.65
2022-10-23T00:19:55.687Z,10.35
2022-10-23T00:22:22.778Z,9.03
2022-10-23T00:24:49.939Z,9.10
2022-10-23T00:27:17.040Z,9.57
2022-10-23T00:29:45.112Z,9.52
2022-10-23T00:32:12.202Z,9.75
2022-10-23T00:34:39.325Z,10.07
2022-10-23T00:37:06.452Z,10.05
2022-10-23T00:39:33.584Z,9.57
2022-10-23T00:42:00.686Z,9.80
2022-10-23T00:44:30.802Z,9.52
2022-10-23T00:46:58.640Z,9.57
2022-10-23T00:49:26.114Z,8.93
2022-10-23T00:51:54.656Z,9.10
2022-10-23T00:54:24.388Z,8.95
2022-10-23T00:56:52.522Z,9.07
2022-10-23T00:59:19.626Z,9.13
2022-10-23T01:01:47.024Z,9.30
2022-10-23T01:04:14.231Z,9.27
2022-10-23T01:06:44.662Z,9.18
2022-10-23T01:09:11.745Z,9.13
2022-10-23T01:11:42.067Z,9.33
2022-10-23T01:14:24.032Z,8.77
2022-10-23T01:16:51.108Z,9.27
2022-10-23T01:19:25.754Z,9.15
2022-10-23T01:22:01.163Z,9.18
2022-10-23T01:24:37.391Z,8.73
2022-10-23T01:27:10.403Z,9.00
2022-10-23T01:29:46.920Z,9.30
2022-10-23T01:32:17.418Z,8.82
2022-10-23T01:34:58.036Z,9.20
2022-10-23T01:37:28.155Z,9.03
2022-10-23T01:39:58.915Z,9.07
2022-10-23T01:42:29.676Z,9.45
2022-10-23T01:45:09.040Z,9.45
2022-10-23T01:47:36.559Z,9.15
2022-10-23T01:50:05.282Z,8.50
2022-10-23T01:52:32.517Z,8.75
2022-10-23T01:55:01.283Z,9.23
2022-10-23T01:57:29.825Z,9.65
2022-10-23T01:59:59.938Z,8.98
2022-10-23T02:02:27.385Z,9.30
2022-10-23T02:04:54.524Z,9.20
2022-10-23T02:07:21.664Z,9.13
2022-10-23T02:09:48.808Z,9.13
2022-10-23T02:12:30.062Z,8.98
2022-10-23T02:15:12.232Z,8.97
2022-10-23T02:17:54.839Z,8.93
2022-10-23T02:20:24.721Z,8.60
2022-10-23T02:22:58.606Z,9.02
2022-10-23T02:25:31.918Z,8.60
2022-10-23T02:28:01.140Z,8.80
2022-10-23T02:30:29.152Z,8.13
2022-10-23T02:32:57.051Z,9.57
2022-10-23T02:35:25.200Z,8.73
2022-10-23T02:37:53.393Z,8.93
2022-10-23T02:40:20.996Z,8.20
2022-10-23T02:43:04.540Z,8.27
2022-10-23T02:48:14.768Z,8.35
2022-10-23T02:50:51.675Z,8.57
2022-10-23T02:53:18.897Z,8.43
2022-10-23T02:55:57.205Z,8.48
2022-10-23T02:58:24.279Z,8.95
2022-10-23T03:00:53.759Z,9.10
2022-10-23T03:03:27.763Z,9.02
2022-10-23T03:05:55.077Z,8.80
2022-10-23T03:08:22.371Z,8.13
2022-10-23T03:10:49.568Z,8.50
2022-10-23T03:13:16.657Z,8.77
2022-10-23T03:15:43.933Z,9.13
2022-10-23T03:18:11.016Z,8.57
2022-10-23T03:20:38.110Z,8.77
2022-10-23T03:23:05.183Z,8.82
2022-10-23T03:25:32.263Z,9.18
2022-10-23T03:28:00.240Z,8.70
2022-10-23T03:30:27.397Z,8.63
2022-10-23T03:32:54.540Z,9.57
2022-10-23T03:35:21.651Z,9.13
2022-10-23T03:37:48.735Z,8.80
2022-10-23T03:40:15.867Z,8.90
2022-10-23T03:42:42.949Z,8.60
2022-10-23T03:45:10.271Z,9.43
2022-10-23T03:47:41.380Z,8.45
2022-10-23T03:50:09.612Z,8.88
2022-10-23T03:52:36.792Z,8.60
2022-10-23T03:55:04.747Z,8.57
2022-10-23T03:57:32.052Z,8.50
2022-10-23T03:59:59.131Z,8.93
2022-10-23T04:02:26.317Z,8.60
2022-10-23T04:04:54.063Z,8.20
2022-10-23T04:07:21.201Z,7.83
2022-10-23T04:09:48.300Z,8.00
2022-10-23T04:12:15.396Z,8.15
2022-10-23T04:14:42.475Z,7.68
2022-10-23T04:17:09.813Z,8.48
2022-10-23T04:19:36.911Z,7.33
2022-10-23T04:22:04.038Z,7.68
2022-10-23T04:24:31.192Z,7.18
2022-10-23T04:26:58.287Z,7.40
2022-10-23T04:29:25.436Z,7.25
2022-10-23T04:31:52.607Z,7.27
2022-10-23T04:34:19.896Z,6.88
2022-10-23T04:36:47.075Z,6.85
2022-10-23T04:39:14.637Z,7.00
2022-10-23T04:41:41.782Z,7.05
2022-10-23T04:44:08.993Z,6.60
2022-10-23T04:46:36.051Z,6.80
2022-10-23T04:49:03.145Z,6.07
2022-10-23T04:51:30.192Z,6.18
2022-10-23T04:53:57.233Z,6.60
2022-10-23T04:56:24.310Z,5.87
2022-10-23T04:58:52.427Z,5.55
2022-10-23T05:01:19.653Z,6.00
2022-10-23T05:03:46.796Z,5.90
2022-10-23T05:06:13.855Z,6.00
2022-10-23T05:08:41.431Z,5.83
2022-10-23T05:11:08.518Z,5.82
2022-10-23T05:13:36.105Z,6.13
2022-10-23T05:16:03.173Z,6.00
2022-10-23T05:18:33.807Z,5.75
2022-10-23T05:21:22.635Z,5.70
2022-10-23T05:23:49.919Z,5.35
2022-10-23T05:26:16.983Z,5.63
2022-10-23T05:28:44.047Z,4.90
2022-10-23T05:31:11.434Z,5.20
2022-10-23T05:33:38.713Z,5.60
2022-10-23T05:36:06.247Z,4.90
2022-10-23T05:38:34.427Z,5.00
2022-10-23T05:41:01.561Z,4.57
2022-10-23T05:43:31.097Z,4.15
2022-10-23T05:45:58.575Z,5.07
2022-10-23T05:48:40.870Z,5.00
2022-10-23T05:51:08.967Z,4.72
2022-10-23T05:53:38.735Z,4.78
2022-10-23T05:56:08.929Z,4.88
2022-10-23T05:58:36.044Z,4.70
2022-10-23T06:01:07.488Z,4.60
2022-10-23T06:03:34.769Z,4.60
2022-10-23T06:06:01.821Z,4.80
2022-10-23T06:08:28.878Z,4.75
2022-10-23T06:10:55.986Z,4.77
2022-10-23T06:13:23.075Z,5.07
2022-10-23T06:15:50.228Z,5.03
2022-10-23T06:18:17.323Z,5.28
2022-10-23T06:20:44.494Z,4.93
2022-10-23T06:23:11.547Z,4.97
2022-10-23T06:25:38.673Z,5.60
2022-10-23T06:28:05.722Z,4.75
2022-10-23T06:30:32.807Z,4.95
2022-10-23T06:33:03.216Z,5.03
2022-10-23T06:35:33.297Z,4.50
2022-10-23T06:38:00.346Z,5.25
2022-10-23T06:40:27.409Z,5.68
2022-10-23T06:42:56.163Z,5.00
2022-10-23T06:45:23.582Z,5.45
2022-10-23T06:47:51.450Z,5.10
2022-10-23T06:50:18.607Z,5.20
2022-10-23T06:52:47.446Z,5.30
2022-10-23T06:55:15.078Z,5.70
2022-10-23T06:57:42.618Z,5.70
2022-10-23T07:00:10.821Z,5.33
2022-10-23T07:02:38.020Z,5.80
2022-10-23T07:05:07.717Z,5.50
2022-10-23T07:07:37.066Z,5.75
2022-10-23T07:10:04.315Z,5.40
2022-10-23T07:12:31.428Z,5.20
2022-10-23T07:14:58.558Z,5.50
2022-10-23T07:17:25.640Z,5.57
2022-10-23T07:19:52.699Z,5.05
2022-10-23T07:22:19.818Z,5.57
2022-10-23T07:24:46.899Z,5.50
2022-10-23T07:27:13.973Z,5.28
2022-10-23T07:29:42.062Z,5.30
2022-10-23T07:32:09.235Z,5.28
2022-10-23T07:34:36.880Z,4.75
2022-10-23T07:37:03.996Z,5.13
2022-10-23T07:39:31.048Z,4.93
2022-10-23T07:41:58.237Z,4.93
2022-10-23T07:44:27.653Z,5.25
2022-10-23T07:46:55.007Z,5.13
2022-10-23T07:49:22.072Z,5.07
2022-10-23T07:51:51.591Z,4.90
2022-10-23T07:54:19.001Z,4.90
2022-10-23T07:56:46.115Z,5.15
2022-10-23T07:59:13.493Z,4.78
2022-10-23T08:01:42.378Z,5.07
2022-10-23T08:04:10.136Z,5.07
2022-10-23T08:06:37.281Z,5.22
2022-10-23T08:09:06.555Z,5.10
2022-10-23T08:11:35.583Z,5.07
2022-10-23T08:14:06.718Z,4.90
2022-10-23T08:16:35.292Z,4.70
2022-10-23T08:19:02.975Z,4.38
2022-10-23T08:21:30.404Z,4.45
2022-10-23T08:23:58.510Z,4.90
2022-10-23T08:26:26.184Z,4.67
2022-10-23T08:28:53.742Z,4.85
2022-10-23T08:31:21.812Z,4.80
2022-10-23T08:36:23.579Z,4.97
2022-10-23T08:38:52.046Z,4.60
2022-10-23T08:41:45.446Z,4.90
2022-10-23T08:44:12.463Z,5.10
2022-10-23T08:46:43.611Z,4.47
2022-10-23T08:49:10.638Z,4.60
2022-10-23T08:51:47.459Z,4.50
2022-10-23T08:54:23.510Z,5.13
2022-10-23T08:56:52.973Z,5.20
2022-10-23T08:59:25.142Z,4.03
2022-10-23T09:01:58.889Z,4.25
2022-10-23T09:04:26.105Z,4.33
2022-10-23T09:07:00.733Z,4.35
2022-10-23T09:09:33.753Z,4.28
2022-10-23T09:12:06.451Z,4.30
2022-10-23T09:14:48.505Z,4.20
2022-10-23T09:17:29.288Z,4.10
2022-10-23T09:20:19.851Z,4.35
2022-10-23T09:22:47.847Z,4.07
2022-10-23T09:25:22.690Z,4.18
2022-10-23T09:27:54.974Z,4.45
2022-10-23T09:30:29.450Z,4.27
2022-10-23T09:32:56.625Z,4.18
2022-10-23T09:35:24.752Z,4.10
2022-10-23T09:37:53.341Z,4.10
2022-10-23T09:40:25.703Z,3.75
2022-10-23T09:42:54.143Z,4.17
2022-10-23T09:45:29.767Z,4.10
2022-10-23T09:48:09.006Z,4.40
2022-10-23T09:50:36.120Z,3.70
2022-10-23T09:53:03.270Z,3.88
2022-10-23T09:55:30.385Z,3.90
2022-10-23T09:57:57.498Z,4.00
2022-10-23T10:00:26.801Z,3.70
2022-10-23T10:03:01.060Z,3.70
2022-10-23T10:05:29.647Z,3.60
2022-10-23T10:07:59.016Z,3.50
2022-10-23T10:10:28.662Z,3.60
2022-10-23T10:12:59.392Z,3.53
2022-10-23T10:15:52.936Z,3.75
2022-10-23T10:18:28.240Z,3.60
2022-10-23T10:21:03.411Z,3.53
2022-10-23T10:23:35.590Z,3.40
2022-10-23T10:26:08.392Z,3.40
2022-10-23T10:28:47.617Z,3.45
2022-10-23T10:31:25.373Z,3.45
2022-10-23T10:34:04.609Z,3.10
2022-10-23T10:36:34.660Z,3.55
2022-10-23T10:39:03.259Z,3.63
2022-10-23T10:41:48.685Z,3.17
2022-10-23T10:44:39.078Z,3.28
2022-10-23T10:47:10.627Z,3.20
2022-10-23T10:49:49.866Z,2.88
2022-10-23T10:52:16.954Z,3.30
2022-10-23T10:54:48.408Z,3.20
2022-10-23T10:57:34.798Z,3.10
2022-10-23T11:00:03.483Z,2.97
2022-10-23T11:02:41.416Z,2.95
2022-10-23T11:05:27.349Z,3.13
2022-10-23T11:08:02.334Z,3.00
2022-10-23T11:10:30.571Z,2.95
2022-10-23T11:12:57.733Z,2.70
2022-10-23T11:15:28.255Z,3.13
2022-10-23T11:17:58.825Z,2.88
2022-10-23T11:20:39.798Z,3.05
2022-10-23T11:23:18.273Z,3.05
2022-10-23T11:25:52.201Z,2.83
2022-10-23T11:28:37.813Z,2.90
2022-10-23T11:31:12.063Z,2.70
2022-10-23T11:33:55.269Z,2.67
2022-10-23T11:36:41.990Z,2.88
2022-10-23T11:39:18.241Z,2.80
2022-10-23T11:41:56.695Z,3.22
2022-10-23T11:44:42.625Z,2.60
2022-10-23T11:47:28.683Z,2.78
2022-10-23T11:50:25.776Z,2.67
2022-10-23T11:53:12.920Z,2.50
2022-10-23T11:55:42.028Z,2.50
2022-10-23T11:58:17.907Z,2.60
2022-10-23T12:00:59.024Z,2.65
2022-10-23T12:03:29.429Z,2.50
2022-10-23T12:06:06.471Z,2.40
2022-10-23T12:08:35.755Z,2.47
2022-10-23T12:11:02.911Z,2.30
2022-10-23T12:13:33.163Z,2.35
2022-10-23T12:16:01.132Z,2.47
2022-10-23T12:18:28.758Z,2.80
2022-10-23T12:20:58.024Z,2.30
2022-10-23T12:23:28.271Z,2.60
2022-10-23T12:25:55.421Z,2.58
2022-10-23T12:28:22.459Z,2.45
2022-10-23T12:30:58.811Z,2.27
2022-10-23T12:33:30.061Z,2.65
2022-10-23T12:36:07.718Z,2.90
2022-10-23T12:38:40.370Z,2.75
2022-10-23T12:41:07.527Z,2.75
2022-10-23T12:43:36.542Z,2.40
2022-10-23T12:46:26.704Z,2.80
2022-10-23T12:48:54.548Z,2.75
2022-10-23T12:51:23.966Z,2.60
2022-10-23T12:53:51.296Z,2.70
2022-10-23T12:56:19.354Z,2.80
2022-10-23T12:58:52.697Z,2.90
2022-10-23T13:01:40.444Z,3.40
2022-10-23T13:04:28.902Z,2.80
2022-10-23T13:07:05.155Z,2.80
2022-10-23T13:09:38.977Z,2.80
2022-10-23T13:12:06.756Z,2.90
2022-10-23T13:14:39.335Z,3.08
2022-10-23T13:17:10.490Z,3.08
2022-10-23T13:19:37.800Z,3.08
2022-10-23T13:22:07.042Z,3.07
2022-10-23T13:24:34.184Z,3.03
2022-10-23T13:27:01.293Z,3.00
2022-10-23T13:29:31.504Z,2.80
2022-10-23T13:31:58.967Z,2.92
2022-10-23T13:34:27.251Z,3.33
2022-10-23T13:36:56.176Z,3.33
2022-10-23T13:39:24.512Z,2.78
2022-10-23T13:41:51.862Z,4.10
2022-10-23T13:44:20.688Z,3.20
2022-10-23T13:46:48.433Z,2.73
2022-10-23T13:49:16.198Z,3.20
2022-10-23T13:51:53.388Z,2.67
2022-10-23T13:54:22.507Z,3.47
2022-10-23T13:56:50.123Z,2.90
2022-10-23T13:59:17.416Z,3.00
2022-10-23T14:01:45.178Z,2.90
2022-10-23T14:04:14.235Z,2.90
2022-10-23T14:06:44.481Z,2.70
2022-10-23T14:09:13.231Z,3.00
2022-10-23T14:11:40.476Z,2.83
2022-10-23T14:14:07.829Z,2.88
2022-10-23T14:16:34.908Z,2.72
2022-10-23T14:19:02.024Z,2.88
2022-10-23T14:21:29.131Z,3.00
2022-10-23T14:23:56.264Z,2.97
2022-10-23T14:26:30.103Z,3.15
2022-10-23T14:29:00.674Z,2.80
2022-10-23T14:31:31.577Z,2.97
2022-10-23T14:34:00.642Z,3.00
2022-10-23T14:36:34.379Z,2.83
2022-10-23T14:39:10.640Z,2.83
2022-10-23T14:41:40.395Z,2.83
2022-10-23T14:44:07.689Z,2.80
2022-10-23T14:46:35.631Z,3.08
2022-10-23T14:49:02.747Z,3.33
2022-10-23T14:51:30.523Z,2.50
2022-10-23T14:53:59.744Z,2.90
2022-10-23T14:56:27.284Z,2.50
2022-10-23T14:58:54.888Z,2.90
2022-10-23T15:01:22.112Z,2.70
2022-10-23T15:03:54.605Z,2.78
2022-10-23T15:06:21.699Z,2.95
2022-10-23T15:08:52.415Z,2.70
2022-10-23T15:11:19.556Z,3.03
2022-10-23T15:13:46.640Z,2.60
2022-10-23T15:16:14.006Z,3.20
2022-10-23T15:18:41.143Z,3.03
2022-10-23T15:21:08.899Z,2.88
2022-10-23T15:23:37.156Z,2.70
2022-10-23T15:26:05.493Z,2.60
2022-10-23T15:28:32.923Z,2.80
2022-10-23T15:31:00.031Z,3.30
2022-10-23T15:33:27.435Z,3.40
2022-10-23T15:35:54.690Z,2.95
2022-10-23T15:38:22.402Z,2.80
2022-10-23T15:40:49.974Z,2.95
2022-10-23T15:43:17.731Z,3.08
2022-10-23T15:45:45.703Z,2.90
2022-10-23T15:48:13.523Z,2.95
2022-10-23T15:50:40.672Z,2.60
2022-10-23T15:53:07.810Z,3.00
2022-10-23T15:55:35.399Z,3.50
2022-10-23T15:58:04.781Z,2.80
2022-10-23T16:00:35.777Z,2.85
2022-10-23T16:03:03.137Z,3.10
2022-10-23T16:05:30.279Z,3.05
2022-10-23T16:07:57.363Z,2.88
2022-10-23T16:10:24.907Z,3.20
2022-10-23T16:12:51.959Z,2.70
2022-10-23T16:15:19.084Z,3.00
2022-10-23T16:17:46.413Z,3.10
2022-10-23T16:20:13.735Z,3.00
2022-10-23T16:22:44.119Z,3.17
2022-10-23T16:25:12.131Z,3.08
2022-10-23T16:27:39.368Z,3.00
2022-10-23T16:30:09.527Z,3.30
2022-10-23T16:32:36.733Z,3.42
2022-10-23T16:35:03.824Z,3.10
2022-10-23T16:37:30.964Z,3.42
2022-10-23T16:39:58.483Z,3.20
2022-10-23T16:42:25.562Z,3.38
2022-10-23T16:44:52.620Z,3.55
2022-10-23T16:47:19.733Z,3.13
2022-10-23T16:49:46.788Z,3.10
2022-10-23T16:52:13.825Z,3.10
2022-10-23T16:54:43.003Z,3.08
2022-10-23T16:57:10.038Z,3.67
2022-10-23T16:59:37.155Z,2.90
2022-10-23T17:02:04.362Z,3.33
2022-10-23T17:04:31.519Z,3.20
2022-10-23T17:06:58.594Z,3.45
2022-10-23T17:09:27.415Z,3.30
2022-10-23T17:11:54.715Z,3.45
2022-10-23T17:14:24.932Z,3.70
2022-10-23T17:16:52.476Z,4.20
2022-10-23T17:19:40.114Z,3.80
2022-10-23T17:22:10.834Z,3.20
2022-10-23T17:24:38.745Z,3.47
2022-10-23T17:27:05.877Z,3.00
2022-10-23T17:29:32.963Z,3.20
2022-10-23T17:32:00.075Z,3.40
2022-10-23T17:34:27.117Z,3.30
2022-10-23T17:36:55.518Z,3.17
2022-10-23T17:39:24.071Z,4.72
2022-10-23T17:41:51.577Z,3.17
2022-10-23T17:44:18.854Z,3.42
2022-10-23T17:46:45.924Z,3.47
2022-10-23T17:49:13.363Z,3.28
2022-10-23T17:51:40.459Z,3.47
2022-10-23T17:54:09.604Z,3.70
2022-10-23T17:56:38.223Z,3.28
2022-10-23T17:59:07.357Z,2.92
2022-10-23T18:01:34.594Z,2.80
2022-10-23T18:04:03.151Z,3.45
2022-10-23T18:06:32.110Z,3.20
2022-10-23T18:08:59.682Z,3.40
2022-10-23T18:11:28.222Z,3.20
2022-10-23T18:13:55.624Z,3.20
2022-10-23T18:16:22.776Z,3.25
2022-10-23T18:18:51.612Z,2.90
2022-10-23T18:21:19.408Z,2.95
2022-10-23T18:23:46.462Z,3.17
2022-10-23T18:26:16.547Z,3.35
2022-10-23T18:28:44.344Z,3.15
2022-10-23T18:31:12.244Z,3.30
2022-10-23T18:33:40.111Z,3.35
2022-10-23T18:36:14.402Z,3.38
2022-10-23T18:38:41.668Z,3.08
2022-10-23T18:41:08.743Z,3.53
2022-10-23T18:43:43.644Z,3.30
2022-10-23T18:46:11.865Z,3.53
2022-10-23T18:48:38.936Z,3.50
2022-10-23T18:51:06.075Z,3.28
2022-10-23T18:53:33.131Z,3.47
2022-10-23T18:56:00.746Z,3.23
2022-10-23T18:58:27.824Z,3.10
2022-10-23T19:00:54.964Z,3.65
2022-10-23T19:03:22.044Z,3.08
2022-10-23T19:05:51.244Z,3.25
2022-10-23T19:08:18.519Z,3.50
2022-10-23T19:10:46.269Z,3.35
2022-10-23T19:13:13.311Z,2.90
2022-10-23T19:15:40.395Z,3.30
2022-10-23T19:18:07.708Z,3.35
2022-10-23T19:20:34.791Z,2.83
2022-10-23T19:23:02.920Z,2.65
2022-10-23T19:25:31.804Z,3.15
2022-10-23T19:27:59.612Z,2.58
2022-10-23T19:30:26.799Z,2.70
2022-10-23T19:32:54.550Z,2.20
2022-10-23T19:35:22.053Z,2.40
2022-10-23T19:37:49.175Z,2.08
2022-10-23T19:40:16.436Z,2.20
2022-10-23T19:42:44.241Z,2.25
2022-10-23T19:45:12.698Z,2.13
2022-10-23T19:47:40.335Z,3.35
2022-10-23T19:50:08.685Z,2.17
2022-10-23T19:52:35.910Z,2.20
2022-10-23T19:55:05.718Z,2.30
2022-10-23T19:57:37.000Z,2.20
2022-10-23T20:00:05.883Z,2.10
2022-10-23T20:02:33.674Z,2.17
2022-10-23T20:05:00.866Z,1.90
2022-10-23T20:07:27.914Z,2.00
2022-10-23T20:09:55.128Z,1.90
2022-10-23T20:12:23.768Z,1.80
2022-10-23T20:14:50.957Z,2.20
2022-10-23T20:17:18.006Z,2.55
2022-10-23T20:19:45.101Z,2.20
2022-10-23T20:22:12.160Z,2.10
2022-10-23T20:24:42.156Z,1.70
2022-10-23T20:27:10.154Z,2.20
2022-10-23T20:29:37.330Z,1.80
2022-10-23T20:32:04.437Z,1.48
2022-10-23T20:34:31.613Z,1.80
2022-10-23T20:36:58.775Z,1.25
2022-10-23T20:39:26.631Z,1.30
2022-10-23T20:41:57.071Z,1.52
2022-10-23T20:44:24.601Z,1.10
2022-10-23T20:46:51.686Z,1.43
2022-10-23T20:49:18.861Z,1.15
2022-10-23T20:51:51.401Z,1.10
2022-10-23T20:54:21.286Z,1.00
2022-10-23T20:56:48.670Z,1.20
2022-10-23T20:59:17.990Z,0.90
2022-10-23T21:01:48.450Z,0.90
2022-10-23T21:04:16.128Z,0.90
2022-10-23T21:07:04.501Z,0.80
2022-10-23T21:09:30.851Z,1.23
2022-10-23T21:11:58.007Z,1.10
2022-10-23T21:14:25.164Z,0.90
2022-10-23T21:16:52.203Z,1.25
2022-10-23T21:19:19.270Z,1.10
2022-10-23T21:21:46.398Z,1.27
2022-10-23T21:24:15.069Z,1.20
2022-10-23T21:26:42.429Z,1.00
2022-10-23T21:29:18.963Z,1.10
2022-10-23T21:31:46.356Z,1.00
2022-10-23T21:34:13.446Z,1.10
2022-10-23T21:36:54.116Z,1.00
2022-10-23T21:39:28.442Z,1.15
2022-10-23T21:41:55.513Z,1.10
2022-10-23T21:44:22.586Z,1.00
2022-10-23T21:46:49.653Z,1.02
2022-10-23T21:49:16.699Z,0.90
2022-10-23T21:51:43.975Z,1.20
2022-10-23T21:54:12.758Z,1.20
2022-10-23T21:56:41.193Z,1.10
2022-10-23T21:59:12.688Z,1.00
2022-10-23T22:01:40.429Z,1.10
2022-10-23T22:04:07.624Z,1.02
2022-10-23T22:06:34.727Z,1.13
2022-10-23T22:09:01.809Z,1.10
2022-10-23T22:11:29.264Z,1.30
2022-10-23T22:13:56.676Z,1.00
2022-10-23T22:16:23.828Z,2.17
2022-10-23T22:18:50.935Z,1.10
2022-10-23T22:21:19.412Z,1.05
2022-10-23T22:23:49.022Z,1.40
2022-10-23T22:26:25.314Z,1.30
2022-10-23T22:28:53.768Z,1.40
2022-10-23T22:31:22.872Z,1.50
2022-10-23T22:33:50.374Z,1.90
2022-10-23T22:36:17.621Z,1.70
2022-10-23T22:38:45.060Z,1.43
2022-10-23T22:41:12.287Z,1.40
2022-10-23T22:43:39.436Z,1.60
2022-10-23T22:46:07.752Z,1.60
2022-10-23T22:48:35.138Z,1.50
2022-10-23T22:51:02.282Z,1.20
2022-10-23T22:53:29.388Z,1.33
2022-10-23T22:55:57.119Z,1.45
2022-10-23T22:58:24.885Z,1.30
2022-10-23T23:00:53.290Z,1.30
2022-10-23T23:03:20.398Z,2.57
2022-10-23T23:05:48.344Z,1.50
2022-10-23T23:08:15.684Z,1.60
2022-10-23T23:10:42.728Z,1.50
2022-10-23T23:13:09.804Z,1.60
2022-10-23T23:15:41.192Z,1.50
2022-10-23T23:18:08.338Z,1.80
2022-10-23T23:20:35.590Z,1.55
2022-10-23T23:23:02.800Z,1.83
2022-10-23T23:25:30.092Z,1.90
2022-10-23T23:27:57.525Z,1.97
2022-10-23T23:30:25.029Z,1.98
2022-10-23T23:32:52.781Z,1.70
2022-10-23T23:35:20.543Z,1.90
2022-10-23T23:37:47.612Z,2.17
2022-10-23T23:40:14.744Z,2.10
2022-10-23T23:42:42.045Z,2.20
2022-10-23T23:45:14.552Z,2.15
2022-10-23T23:47:42.249Z,2.20
2022-10-23T23:50:10.374Z,2.33
2022-10-23T23:52:37.546Z,2.20
2022-10-23T23:55:04.941Z,2.63
2022-10-23T23:57:32.291Z,2.10
2022-10-23T23:59:59.381Z,2.22
